Time;durP1;ratioP1;P1;durP2;ratioP2;P2;SDS_P1;SDS_P2;PMS_P1;PMS_P2;Temp;Humidity;BMP_temperature;BMP_pressure;BME280_temperature;BME280_humidity;BME280_pressure;Samples;Min_cycle;Max_cycle;Signal;HPM_P1;HPM_P2
2022/06/17 00:00:39;;;;;;;;;9.60;9.20;;;;;27.25;33.45;101615.34;2074574;28;47772;-60
2022/06/17 00:01:40;;;;;;;;;12.00;10.25;;;;;27.23;33.43;101609.13;2071168;28;47271;-61
2022/06/17 00:02:41;;;;;;;;;8.75;8.75;;;;;27.23;33.86;101606.41;2072106;28;47482;-60
2022/06/17 00:03:41;;;;;;;;;10.00;10.00;;;;;27.21;33.37;101608.41;2071952;28;47860;-60
2022/06/17 00:04:42;;;;;;;;;11.25;10.75;;;;;27.20;33.59;101601.22;2076361;28;47360;-60
2022/06/17 00:05:43;;;;;;;;;12.00;11.25;;;;;27.18;33.45;101604.03;2076444;28;47625;-60
2022/06/17 00:06:49;;;;;;;;;12.40;12.00;;;;;27.17;33.59;101601.41;2072185;28;48493;-61
2022/06/17 00:07:49;;;;;;;;;11.60;9.40;;;;;27.15;33.37;101598.81;2080525;28;47913;-60
2022/06/17 00:08:52;;;;;;;;;12.50;10.75;;;;;27.16;33.59;101596.97;2072332;28;48012;-60
2022/06/17 00:09:53;;;;;;;;;12.80;12.80;;;;;27.14;33.42;101593.50;2070498;28;47581;-60
2022/06/17 00:10:54;;;;;;;;;12.00;12.00;;;;;27.13;34.05;101598.06;2081637;28;48007;-60
2022/06/17 00:11:54;;;;;;;;;8.75;8.75;;;;;27.11;33.98;101588.28;2077084;28;47666;-60
2022/06/17 00:12:55;;;;;;;;;11.00;11.00;;;;;27.10;33.46;101590.16;2078185;28;47642;-60
2022/06/17 00:13:55;;;;;;;;;11.25;11.25;;;;;27.10;33.52;101592.88;2088059;28;47580;-60
2022/06/17 00:15:14;;;;;;;;;11.75;11.75;;;;;27.11;33.62;101596.47;2105226;27;48021;-60
2022/06/17 00:16:17;;;;;;;;;11.20;11.20;;;;;27.09;34.18;101593.88;2102850;27;47348;-60
2022/06/17 00:17:17;;;;;;;;;12.00;12.00;;;;;27.08;33.89;101592.13;2110009;27;47764;-60
2022/06/17 00:18:19;;;;;;;;;9.75;9.75;;;;;27.07;34.21;101597.69;2102208;27;48256;-60
2022/06/17 00:19:20;;;;;;;;;10.80;9.80;;;;;27.05;33.94;101589.63;2099266;27;47794;-59
2022/06/17 00:20:23;;;;;;;;;11.20;11.20;;;;;27.04;33.72;101587.88;2109234;27;48044;-59
2022/06/17 00:21:28;;;;;;;;;11.40;11.40;;;;;27.04;34.40;101592.47;2104512;27;48542;-61
2022/06/17 00:22:29;;;;;;;;;9.00;9.00;;;;;27.03;34.11;101601.63;2106191;27;48266;-61
2022/06/17 00:23:29;;;;;;;;;12.00;12.00;;;;;26.99;34.47;101585.50;2108153;27;47587;-60
2022/06/17 00:24:32;;;;;;;;;13.50;13.50;;;;;26.99;33.68;101590.94;2100832;27;47100;-60
2022/06/17 00:25:35;;;;;;;;;11.40;11.40;;;;;26.99;34.21;101590.06;2099767;28;47497;-61
2022/06/17 00:26:35;;;;;;;;;14.80;13.80;;;;;26.98;33.87;101591.06;2090977;28;48400;-61
2022/06/17 00:27:35;;;;;;;;;13.75;13.00;;;;;26.98;34.08;101585.63;2097381;27;47686;-61
2022/06/17 00:28:36;;;;;;;;;11.50;10.00;;;;;26.97;34.33;101592.06;2113245;27;46542;-61
2022/06/17 00:29:37;;;;;;;;;11.75;11.75;;;;;26.96;34.53;101588.47;2110118;27;48108;-59
2022/06/17 00:30:38;;;;;;;;;11.75;11.75;;;;;26.96;34.14;101590.31;2113758;27;47462;-61
2022/06/17 00:31:39;;;;;;;;;11.60;11.60;;;;;26.94;33.99;101587.72;2110301;27;45836;-60
2022/06/17 00:32:39;;;;;;;;;13.50;13.50;;;;;26.93;34.18;101588.69;2110454;27;47301;-61
2022/06/17 00:33:40;;;;;;;;;12.00;12.00;;;;;26.92;34.04;101589.66;2113418;27;47606;-60
2022/06/17 00:34:42;;;;;;;;;13.00;13.00;;;;;26.92;34.30;101596.97;2110865;27;47486;-60
2022/06/17 00:36:01;;;;;;;;;11.40;11.40;;;;;26.90;34.18;101588.91;2109091;27;48388;-60
2022/06/17 00:37:03;;;;;;;;;13.00;13.00;;;;;26.90;34.83;101590.78;2105477;27;47700;-61
2022/06/17 00:38:05;;;;;;;;;13.20;13.20;;;;;26.89;34.24;101586.31;2105271;27;48157;-61
2022/06/17 00:39:13;;;;;;;;;11.60;11.40;;;;;26.87;34.85;101594.59;2104761;27;48248;-60
2022/06/17 00:40:26;;;;;;;;;12.40;12.40;;;;;26.85;34.26;101593.84;2105034;27;47484;-61
2022/06/17 00:41:32;;;;;;;;;12.40;12.40;;;;;26.85;34.35;101598.44;2096798;28;47514;-60
2022/06/17 00:42:34;;;;;;;;;13.40;12.20;;;;;26.83;34.33;101595.84;2104082;27;47585;-60
2022/06/17 00:43:36;;;;;;;;;13.00;13.00;;;;;26.84;34.42;101591.25;2104006;27;48035;-59
2022/06/17 00:44:46;;;;;;;;;12.60;12.60;;;;;26.82;34.91;101593.22;2101229;28;47824;-59
2022/06/17 00:45:58;;;;;;;;;12.60;12.60;;;;;26.81;34.90;101594.22;2106238;27;47758;-60
2022/06/17 00:47:09;;;;;;;;;13.40;13.40;;;;;26.79;34.58;101593.44;2101662;27;47857;-58
2022/06/17 00:48:28;;;;;;;;;15.60;14.60;;;;;26.78;34.52;101592.56;2100139;28;47234;-59
2022/06/17 00:49:49;;;;;;;;;13.80;12.60;;;;;26.77;34.59;101584.53;2099440;28;47342;-61
2022/06/17 00:50:57;;;;;;;;;14.40;14.40;;;;;26.76;34.86;101582.78;2106519;27;48164;-60
2022/06/17 00:52:07;;;;;;;;;14.80;13.80;;;;;26.76;35.31;101585.50;2107065;27;47908;-59
2022/06/17 00:53:26;;;;;;;;;13.00;13.00;;;;;26.74;35.17;101588.34;2109146;27;48948;-60
2022/06/17 00:54:41;;;;;;;;;13.80;13.80;;;;;26.73;34.64;101588.47;2104939;28;48110;-61
2022/06/17 00:55:50;;;;;;;;;12.00;11.00;;;;;26.72;35.08;101590.31;2102982;27;47673;-57
2022/06/17 00:56:51;;;;;;;;;12.60;12.60;;;;;26.72;35.46;101584.88;2102973;27;47918;-60
2022/06/17 00:57:51;;;;;;;;;12.00;11.60;;;;;26.69;35.07;101586.00;2099812;28;48193;-60
2022/06/17 00:59:06;;;;;;;;;8.50;8.50;;;;;26.71;35.28;101593.16;2106988;27;47097;-60
2022/06/17 01:00:06;;;;;;;;;14.60;13.80;;;;;26.71;35.36;101587.72;2104126;27;47714;-60
2022/06/17 01:01:11;;;;;;;;;12.75;12.50;;;;;26.69;35.39;101591.44;2100101;27;47681;-59
2022/06/17 01:02:12;;;;;;;;;12.40;11.40;;;;;26.68;34.90;101591.56;2088229;28;48819;-58
2022/06/17 01:03:17;;;;;;;;;12.40;12.40;;;;;26.65;35.42;101587.19;2089558;28;47601;-60
2022/06/17 01:04:23;;;;;;;;;16.80;12.40;;;;;26.64;34.88;101585.44;2100004;28;47724;-60
2022/06/17 01:05:30;;;;;;;;;11.40;11.40;;;;;26.64;34.78;101582.72;2102727;27;47756;-60
2022/06/17 01:06:35;;;;;;;;;12.40;12.40;;;;;26.65;35.00;101587.19;2104419;27;48082;-61
2022/06/17 01:07:42;;;;;;;;;12.20;12.20;;;;;26.65;34.62;101589.03;2100151;27;47642;-61
2022/06/17 01:10:16;;;;;;;;;10.80;10.80;;;;;26.67;34.97;101590.66;2086896;28;47473;-62
2022/06/17 01:11:16;;;;;;;;;11.00;11.00;;;;;26.68;35.29;101589.69;2094412;28;48504;-61
2022/06/17 01:12:21;;;;;;;;;10.00;10.00;;;;;26.69;34.55;101594.16;2100662;28;48097;-60
2022/06/17 01:13:21;;;;;;;;;11.00;10.80;;;;;26.69;35.04;101594.16;2100966;28;47970;-59
2022/06/17 01:14:23;;;;;;;;;13.00;13.00;;;;;26.71;34.59;101593.16;2088098;28;47804;-58
2022/06/17 01:15:26;;;;;;;;;9.80;9.80;;;;;26.71;35.41;101595.88;2096067;28;47841;-59
2022/06/17 01:16:34;;;;;;;;;11.80;11.80;;;;;26.69;35.25;101599.59;2104794;28;47895;-59
2022/06/17 01:17:39;;;;;;;;;9.80;9.80;;;;;26.68;34.44;101599.72;2104649;28;48251;-60
2022/06/17 01:18:43;;;;;;;;;10.40;10.40;;;;;26.68;34.90;101599.72;2101028;28;47759;-60
2022/06/17 01:19:51;;;;;;;;;10.00;10.00;;;;;26.66;34.98;101612.56;2086886;28;47681;-57
2022/06/17 01:20:55;;;;;;;;;9.40;8.00;;;;;26.67;35.18;101606.13;2095210;28;47864;-61
2022/06/17 01:22:13;;;;;;;;;11.40;10.40;;;;;26.67;34.68;101603.41;2100706;28;47771;-59
2022/06/17 01:23:14;;;;;;;;;10.20;10.20;;;;;26.67;35.30;101598.81;2103524;28;48286;-60
2022/06/17 01:24:15;;;;;;;;;10.25;9.50;;;;;26.68;34.87;101597.00;2086793;28;47498;-60
2022/06/17 01:25:27;;;;;;;;;10.60;10.60;;;;;26.67;34.94;101598.81;2087098;28;47965;-60
2022/06/17 01:26:28;;;;;;;;;11.80;10.20;;;;;26.67;35.35;101596.09;2104208;27;47436;-60
2022/06/17 01:27:34;;;;;;;;;11.75;11.75;;;;;26.69;34.93;101606.91;2098678;28;47683;-60
2022/06/17 01:28:34;;;;;;;;;11.40;9.80;;;;;26.68;35.24;101603.31;2104701;28;47466;-58
2022/06/17 01:29:35;;;;;;;;;11.50;11.50;;;;;26.68;35.40;101595.16;2110672;27;47670;-59
2022/06/17 01:30:39;;;;;;;;;14.50;13.25;;;;;26.67;35.24;101607.00;2103789;28;47404;-60
2022/06/17 01:31:51;;;;;;;;;11.40;11.40;;;;;26.69;35.13;101602.31;2100604;28;48073;-60
2022/06/17 01:32:57;;;;;;;;;10.60;10.60;;;;;26.69;35.28;101604.19;2110263;27;48082;-60
2022/06/17 01:33:57;;;;;;;;;10.00;10.00;;;;;26.68;34.83;101608.75;2103330;28;47039;-60
2022/06/17 01:35:00;;;;;;;;;10.25;10.25;;;;;26.67;35.43;101607.00;2101169;28;47831;-60
2022/06/17 01:36:06;;;;;;;;;11.00;11.00;;;;;26.67;35.37;101608.84;2104387;27;48020;-60
2022/06/17 01:37:07;;;;;;;;;8.20;8.20;;;;;26.65;35.00;101611.69;2104683;27;47151;-60
2022/06/17 01:38:08;;;;;;;;;10.40;9.40;;;;;26.65;34.81;101614.41;2104371;27;46447;-60
2022/06/17 01:39:11;;;;;;;;;10.25;10.25;;;;;26.64;34.88;101614.53;2102280;27;47830;-59
2022/06/17 01:40:12;;;;;;;;;11.00;10.80;;;;;26.62;35.25;101617.38;2101571;27;47975;-59
2022/06/17 01:41:14;;;;;;;;;10.50;10.50;;;;;26.63;35.65;101615.50;2099239;27;46433;-59
2022/06/17 01:42:14;;;;;;;;;9.60;9.60;;;;;26.62;35.39;101614.66;2104826;27;47961;-60
2022/06/17 01:43:17;;;;;;;;;9.75;9.75;;;;;26.63;35.06;101616.38;2104485;27;47630;-59
2022/06/17 01:44:32;;;;;;;;;11.40;11.40;;;;;26.63;35.42;101612.78;2104656;27;48056;-60
2022/06/17 01:45:35;;;;;;;;;9.40;9.40;;;;;26.63;35.56;101612.78;2095432;28;47983;-59
2022/06/17 01:46:41;;;;;;;;;7.00;7.00;;;;;26.63;35.43;101612.78;2096277;28;47805;-60
2022/06/17 01:47:44;;;;;;;;;9.00;9.00;;;;;26.63;35.50;101607.34;2104488;27;48120;-60
2022/06/17 01:49:03;;;;;;;;;10.40;10.40;;;;;26.62;35.60;101611.94;2104693;27;47943;-60
2022/06/17 01:50:12;;;;;;;;;10.00;10.00;;;;;26.62;35.58;101613.78;2103905;27;48623;-60
2022/06/17 01:51:19;;;;;;;;;14.00;14.00;;;;;26.61;35.20;101621.09;2104515;28;47994;-60
2022/06/17 01:52:27;;;;;;;;;9.80;9.80;;;;;26.63;35.49;101620.97;2104521;27;48188;-60
2022/06/17 01:53:32;;;;;;;;;9.60;9.60;;;;;26.61;35.19;101621.09;2104239;27;47761;-60
2022/06/17 01:54:58;;;;;;;;;11.40;11.00;;;;;26.61;35.14;101625.66;2104313;28;47576;-60
2022/06/17 01:56:04;;;;;;;;;14.20;12.80;;;;;26.60;35.05;101635.69;2068363;28;47829;-60
2022/06/17 01:57:07;;;;;;;;;10.00;10.00;;;;;26.60;35.03;101629.38;2071510;28;47803;-60
2022/06/17 01:58:21;;;;;;;;;8.40;8.40;;;;;26.59;35.41;101628.50;2075116;28;47449;-60
2022/06/17 01:59:29;;;;;;;;;10.80;10.00;;;;;26.60;35.83;101637.53;2066730;28;45377;-60
2022/06/17 02:00:31;;;;;;;;;9.20;9.20;;;;;26.59;35.85;101635.81;2069985;28;48322;-60
2022/06/17 02:01:36;;;;;;;;;11.40;11.40;;;;;26.59;35.84;101638.53;2074661;28;47982;-59
2022/06/17 02:02:39;;;;;;;;;12.20;12.20;;;;;26.59;35.20;101635.81;2071824;28;47660;-61
2022/06/17 02:03:52;;;;;;;;;11.80;11.80;;;;;26.58;35.73;101637.66;2070345;28;47632;-61
2022/06/17 02:04:58;;;;;;;;;12.00;10.40;;;;;26.58;35.38;101631.34;2073973;28;47755;-60
2022/06/17 02:06:14;;;;;;;;;11.60;11.60;;;;;26.58;35.71;101636.78;2075670;28;47344;-60
2022/06/17 02:07:24;;;;;;;;;13.00;13.00;;;;;26.58;35.40;101632.22;2068428;28;47332;-61
2022/06/17 02:08:25;;;;;;;;;11.80;11.80;;;;;26.57;35.48;101630.47;2071112;28;47863;-61
2022/06/17 02:09:26;;;;;;;;;11.00;11.00;;;;;26.57;35.81;101635.91;2075799;28;47815;-60
2022/06/17 02:10:30;;;;;;;;;11.80;11.80;;;;;26.58;36.06;101636.78;2073046;28;48085;-60
2022/06/17 02:11:33;;;;;;;;;11.40;11.40;;;;;26.58;35.93;101637.66;2071749;28;48063;-60
2022/06/17 02:12:34;;;;;;;;;11.60;11.60;;;;;26.58;35.95;101642.22;2077043;28;47508;-60
2022/06/17 02:13:35;;;;;;;;;13.60;11.80;;;;;26.58;35.92;101644.94;2066804;28;47476;-60
2022/06/17 02:14:36;;;;;;;;;15.40;15.40;;;;;26.57;36.10;101641.38;2071269;28;47404;-59
2022/06/17 02:15:37;;;;;;;;;12.00;12.00;;;;;26.56;35.86;101647.78;2067308;28;47778;-60
2022/06/17 02:16:43;;;;;;;;;10.50;10.50;;;;;26.57;35.67;101654.09;2055145;28;47718;-60
2022/06/17 02:17:47;;;;;;;;;13.60;12.40;;;;;26.57;35.63;101648.66;2062566;28;47571;-60
2022/06/17 02:18:49;;;;;;;;;9.40;9.40;;;;;26.55;35.59;101646.06;2075362;28;47885;-60
2022/06/17 02:19:49;;;;;;;;;11.00;10.60;;;;;26.56;35.60;101647.78;2074201;28;47873;-60
2022/06/17 02:20:55;;;;;;;;;11.00;11.00;;;;;26.56;35.67;101649.66;2073760;28;47062;-60
2022/06/17 02:22:04;;;;;;;;;11.20;11.20;;;;;26.56;36.41;101647.78;2074648;28;48047;-60
2022/06/17 02:23:05;;;;;;;;;11.40;10.00;;;;;26.54;35.69;101647.00;2071954;28;47596;-60
2022/06/17 02:24:07;;;;;;;;;13.75;13.75;;;;;26.55;36.15;101645.16;2068290;28;47904;-60
2022/06/17 02:25:12;;;;;;;;;12.40;11.80;;;;;26.54;35.79;101647.00;2066470;28;47955;-60
2022/06/17 02:26:14;;;;;;;;;13.00;13.00;;;;;26.53;36.41;101650.72;2073237;28;47670;-60
2022/06/17 02:27:15;;;;;;;;;15.20;14.40;;;;;26.55;35.94;101647.88;2052786;28;47524;-60
2022/06/17 02:28:17;;;;;;;;;10.50;10.50;;;;;26.52;36.14;101651.69;2043768;28;47716;-59
2022/06/17 02:29:19;;;;;;;;;12.20;12.20;;;;;26.52;35.94;101648.97;2060867;28;47693;-59
2022/06/17 02:30:21;;;;;;;;;12.40;11.80;;;;;26.53;35.83;101658.88;2077627;28;47854;-58
2022/06/17 02:31:22;;;;;;;;;9.60;9.60;;;;;26.53;36.36;101652.56;2062559;28;47853;-59
2022/06/17 02:32:22;;;;;;;;;14.75;13.00;;;;;26.52;35.77;101654.44;2062134;28;47932;-60
2022/06/17 02:33:24;;;;;;;;;12.75;12.75;;;;;26.53;35.83;101652.56;2076472;28;47488;-59
2022/06/17 02:34:26;;;;;;;;;12.40;11.60;;;;;26.53;36.33;101658.00;2105074;27;47390;-60
2022/06/17 02:35:35;;;;;;;;;12.00;12.00;;;;;26.52;36.00;101659.00;2104366;27;48223;-61
2022/06/17 02:36:53;;;;;;;;;14.80;14.80;;;;;26.51;35.95;101662.72;2104413;27;48257;-61
2022/06/17 02:37:54;;;;;;;;;13.80;13.80;;;;;26.47;36.54;101658.47;2105804;27;47893;-60
2022/06/17 02:38:55;;;;;;;;;11.00;11.00;;;;;26.44;36.15;101654.13;2088185;28;47725;-60
2022/06/17 02:39:58;;;;;;;;;13.50;13.50;;;;;26.43;36.07;101655.13;2086322;28;47692;-60
2022/06/17 02:41:05;;;;;;;;;12.00;12.00;;;;;26.43;36.26;101655.13;2106545;27;48818;-60
2022/06/17 02:42:09;;;;;;;;;12.40;12.40;;;;;26.42;36.87;101656.06;2106433;27;47656;-58
2022/06/17 02:43:25;;;;;;;;;12.60;12.60;;;;;26.41;36.23;101659.78;2103170;27;48096;-59
2022/06/17 02:44:33;;;;;;;;;12.20;10.80;;;;;26.40;36.68;101658.06;2106879;27;47682;-58
2022/06/17 02:45:39;;;;;;;;;13.40;13.40;;;;;26.41;36.79;101657.06;2099246;27;47664;-59
2022/06/17 02:46:42;;;;;;;;;11.20;11.20;;;;;26.40;36.76;101647.16;2095543;28;47742;-59
2022/06/17 02:47:44;;;;;;;;;12.80;12.80;;;;;26.40;36.33;101650.75;2100678;27;46859;-58
2022/06/17 02:48:55;;;;;;;;;12.00;12.00;;;;;26.41;36.73;101646.19;2085903;28;47762;-57
2022/06/17 02:49:57;;;;;;;;;12.20;12.20;;;;;26.39;36.46;101654.47;2081569;27;47807;-59
2022/06/17 02:51:00;;;;;;;;;13.80;13.80;;;;;26.39;36.81;101659.03;2100867;27;47906;-61
2022/06/17 02:52:04;;;;;;;;;12.00;12.00;;;;;26.38;36.11;101657.28;2101369;27;47791;-60
2022/06/17 02:53:04;;;;;;;;;11.40;11.40;;;;;26.37;36.41;101669.16;2104752;27;47555;-60
2022/06/17 02:54:07;;;;;;;;;11.00;11.00;;;;;26.34;37.05;101655.75;2104334;27;47462;-60
2022/06/17 02:55:17;;;;;;;;;12.80;12.80;;;;;26.31;36.98;101661.44;2102619;27;47811;-60
2022/06/17 02:56:24;;;;;;;;;11.40;11.20;;;;;26.28;36.38;101658.91;2086869;28;46705;-61
2022/06/17 02:57:28;;;;;;;;;14.00;14.00;;;;;26.26;36.54;101667.19;2095490;28;47877;-60
2022/06/17 02:58:56;;;;;;;;;14.20;13.60;;;;;26.23;37.19;101666.53;2101743;27;47586;-60
2022/06/17 03:00:13;;;;;;;;;14.20;14.20;;;;;26.18;36.77;101666.03;2102975;27;48196;-61
2022/06/17 03:01:35;;;;;;;;;12.40;12.40;;;;;26.14;37.18;101667.19;2096830;27;47821;-61
2022/06/17 03:02:41;;;;;;;;;12.60;12.60;;;;;26.12;37.01;101667.31;2100364;27;47633;-61
2022/06/17 03:03:42;;;;;;;;;12.20;12.20;;;;;26.10;37.41;101659.28;2101086;27;47967;-61
2022/06/17 03:04:45;;;;;;;;;14.40;14.40;;;;;26.09;37.25;101659.38;2103748;27;47977;-61
2022/06/17 03:05:46;;;;;;;;;15.60;15.60;;;;;26.05;37.16;101658.75;2102940;28;47671;-61
2022/06/17 03:06:50;;;;;;;;;14.00;13.00;;;;;26.04;37.12;101658.81;2101779;27;47575;-60
2022/06/17 03:07:51;;;;;;;;;13.20;12.80;;;;;26.00;36.92;101655.47;2104077;27;47352;-61
2022/06/17 03:08:52;;;;;;;;;14.80;14.60;;;;;26.00;37.35;101660.91;2110174;27;47569;-59
2022/06/17 03:09:52;;;;;;;;;12.00;11.25;;;;;26.01;37.82;101661.78;2108086;27;46745;-62
2022/06/17 03:10:57;;;;;;;;;12.50;12.50;;;;;26.01;37.39;101661.78;2104505;27;47266;-62
2022/06/17 03:12:11;;;;;;;;;9.40;9.40;;;;;26.02;37.19;101664.38;2098404;27;47528;-62
2022/06/17 03:13:21;;;;;;;;;11.80;11.80;;;;;26.02;37.12;101658.94;2091854;28;47791;-61
2022/06/17 03:14:24;;;;;;;;;13.20;11.60;;;;;26.03;37.38;101663.41;2089351;28;47196;-62
2022/06/17 03:15:25;;;;;;;;;12.80;12.80;;;;;26.02;36.98;101660.78;2104035;28;47674;-63
2022/06/17 03:16:26;;;;;;;;;11.00;11.00;;;;;26.00;37.43;101658.19;2104104;28;47545;-62
2022/06/17 03:17:27;;;;;;;;;15.60;14.60;;;;;26.00;37.40;101651.88;2103965;28;48076;-62
2022/06/17 03:18:29;;;;;;;;;10.75;10.75;;;;;25.98;37.17;101649.28;2103935;28;48222;-61
2022/06/17 03:19:33;;;;;;;;;11.40;11.40;;;;;25.96;37.52;101645.78;2100213;27;47644;-61
2022/06/17 03:20:35;;;;;;;;;10.20;10.20;;;;;25.96;37.75;101644.94;2097293;28;47730;-61
2022/06/17 03:21:36;;;;;;;;;13.80;13.20;;;;;25.94;37.79;101644.16;2095843;28;48348;-60
2022/06/17 03:22:38;;;;;;;;;13.80;13.80;;;;;25.93;37.80;101637.88;2089547;28;48088;-59
2022/06/17 03:24:04;;;;;;;;;13.60;13.60;;;;;25.92;37.27;101640.66;2086115;28;47889;-60
2022/06/17 03:25:18;;;;;;;;;13.80;13.80;;;;;25.91;37.22;101641.66;2069840;28;48235;-59
2022/06/17 03:26:24;;;;;;;;;12.60;12.40;;;;;25.90;37.60;101637.19;2073455;28;47590;-59
2022/06/17 03:27:50;;;;;;;;;14.40;13.20;;;;;25.88;37.53;101634.59;2075563;28;47721;-59
2022/06/17 03:28:51;;;;;;;;;25.20;24.20;;;;;25.87;37.35;101635.56;2061542;28;48072;-60
2022/06/17 03:29:55;;;;;;;;;13.00;13.00;;;;;25.86;37.55;101633.81;2074095;28;47637;-60
2022/06/17 03:31:03;;;;;;;;;18.40;18.40;;;;;25.85;37.70;101631.22;2075109;28;47597;-60
2022/06/17 03:32:10;;;;;;;;;15.00;15.00;;;;;25.85;37.16;101633.94;2077586;28;47996;-60
2022/06/17 03:33:26;;;;;;;;;14.00;13.00;;;;;25.84;37.23;101632.19;2066855;28;47491;-60
2022/06/17 03:34:52;;;;;;;;;14.80;13.80;;;;;25.86;37.71;101630.25;2065700;28;47742;-60
2022/06/17 03:35:57;;;;;;;;;16.20;14.40;;;;;25.87;37.40;101630.13;2070922;28;47357;-60
2022/06/17 03:37:08;;;;;;;;;13.80;13.00;;;;;25.88;37.35;101634.59;2069939;28;47880;-60
2022/06/17 03:38:23;;;;;;;;;11.00;11.00;;;;;25.89;37.56;101630.88;2072764;28;48176;-60
2022/06/17 03:39:36;;;;;;;;;14.20;13.40;;;;;25.90;37.00;101627.19;2069116;28;47392;-59
2022/06/17 03:40:40;;;;;;;;;12.00;11.60;;;;;25.91;37.56;101628.03;2066112;28;48299;-61
2022/06/17 03:41:55;;;;;;;;;12.60;12.60;;;;;25.90;37.47;101623.59;2070183;28;48057;-61
2022/06/17 03:43:13;;;;;;;;;15.00;15.00;;;;;25.88;37.18;101621.00;2072432;28;47297;-60
2022/06/17 03:44:19;;;;;;;;;9.60;9.60;;;;;25.88;37.52;101614.69;2072466;28;47708;-60
2022/06/17 03:45:27;;;;;;;;;14.00;14.00;;;;;25.88;37.18;101610.09;2070685;28;47589;-59
2022/06/17 03:46:33;;;;;;;;;13.00;11.80;;;;;25.88;37.38;101610.09;2071273;28;48046;-60
2022/06/17 03:47:46;;;;;;;;;14.00;13.00;;;;;25.88;37.11;101607.38;2072816;28;47393;-61
2022/06/17 03:49:05;;;;;;;;;8.60;8.20;;;;;25.90;37.44;101599.13;2072328;28;47757;-61
2022/06/17 03:50:08;;;;;;;;;10.20;9.00;;;;;25.90;37.18;101604.56;2061713;28;48482;-61
2022/06/17 03:51:16;;;;;;;;;11.40;11.20;;;;;25.90;37.10;101599.13;2080601;28;45330;-61
2022/06/17 03:52:34;;;;;;;;;9.80;9.80;;;;;25.90;36.84;101602.69;2080016;28;47768;-61
2022/06/17 03:53:36;;;;;;;;;10.20;10.20;;;;;25.92;37.26;101616.19;2072236;28;48104;-61
2022/06/17 03:54:37;;;;;;;;;9.40;9.40;;;;;25.92;37.34;101624.34;2070526;28;47357;-61
2022/06/17 03:55:37;;;;;;;;;12.50;12.50;;;;;25.92;37.34;101632.50;2069904;28;47625;-61
2022/06/17 03:56:41;;;;;;;;;11.75;11.75;;;;;25.93;37.18;101645.16;2069766;28;47419;-61
2022/06/17 03:57:44;;;;;;;;;8.60;8.60;;;;;25.93;37.03;101653.31;2069619;28;47578;-61
2022/06/17 03:58:46;;;;;;;;;11.00;10.00;;;;;25.93;36.62;101656.91;2069333;28;47802;-60
2022/06/17 03:59:49;;;;;;;;;9.60;9.00;;;;;25.93;37.13;101656.03;2069460;28;47755;-61
2022/06/17 04:01:02;;;;;;;;;12.40;11.00;;;;;25.95;36.75;101656.78;2069476;28;47805;-59
2022/06/17 04:02:08;;;;;;;;;9.60;9.20;;;;;25.95;37.10;101656.78;2067974;28;47548;-60
2022/06/17 04:03:15;;;;;;;;;10.60;10.60;;;;;25.95;36.48;101654.94;2087333;28;48123;-61
2022/06/17 04:04:26;;;;;;;;;8.80;8.80;;;;;25.96;36.85;101663.97;2099026;27;47671;-61
2022/06/17 04:05:28;;;;;;;;;7.80;7.80;;;;;25.96;36.70;101661.25;2101919;27;47671;-62
2022/06/17 04:06:41;;;;;;;;;11.20;11.20;;;;;25.95;36.89;101656.78;2097936;27;47312;-59
2022/06/17 04:07:43;;;;;;;;;11.40;8.00;;;;;25.94;36.93;101657.78;2098670;27;47930;-56
2022/06/17 04:09:14;;;;;;;;;9.00;9.00;;;;;25.91;36.42;101664.28;2102580;27;47841;-59
2022/06/17 04:10:20;;;;;;;;;10.20;9.40;;;;;25.90;36.90;101667.97;2100796;27;47936;-60
2022/06/17 04:11:23;;;;;;;;;10.00;10.00;;;;;25.90;36.40;101667.97;2098161;28;48121;-60
2022/06/17 04:12:28;;;;;;;;;12.40;10.40;;;;;25.89;36.36;101663.50;2098347;27;47567;-59
2022/06/17 04:13:31;;;;;;;;;10.20;10.20;;;;;25.88;36.60;101660.91;2096544;27;47654;-59
2022/06/17 04:14:54;;;;;;;;;8.80;8.00;;;;;25.87;37.12;101651.00;2096797;28;47895;-59
2022/06/17 04:16:22;;;;;;;;;11.00;11.00;;;;;25.86;36.93;101655.59;2097302;27;47655;-60
2022/06/17 04:17:31;;;;;;;;;6.60;6.60;;;;;25.88;36.39;101653.63;2097372;27;47597;-60
2022/06/17 04:18:35;;;;;;;;;10.60;10.60;;;;;25.87;36.71;101648.28;2099577;27;47788;-60
2022/06/17 04:19:36;;;;;;;;;7.40;7.40;;;;;25.86;36.19;101652.00;2096771;28;47528;-60
2022/06/17 04:20:55;;;;;;;;;10.00;10.00;;;;;25.85;36.67;101659.28;2100063;27;47787;-60
2022/06/17 04:22:19;;;;;;;;;7.00;7.00;;;;;25.85;36.87;101661.13;2101496;27;48113;-60
2022/06/17 04:23:33;;;;;;;;;11.00;9.60;;;;;25.84;36.28;101653.97;2097318;27;47734;-60
2022/06/17 04:24:34;;;;;;;;;9.40;9.40;;;;;25.82;36.97;101651.34;2096874;28;48130;-60
2022/06/17 04:25:39;;;;;;;;;11.50;11.50;;;;;25.82;36.88;101654.06;2097742;27;47393;-60
2022/06/17 04:26:42;;;;;;;;;9.20;9.00;;;;;25.81;36.53;101649.63;2097723;27;47408;-60
2022/06/17 04:28:00;;;;;;;;;12.60;10.60;;;;;25.82;36.67;101645.91;2096380;28;47603;-60
2022/06/17 04:29:11;;;;;;;;;11.40;11.40;;;;;25.81;36.84;101644.19;2097042;28;48201;-60
2022/06/17 04:30:20;;;;;;;;;10.60;10.00;;;;;25.81;36.51;101652.34;2097704;27;48303;-60
2022/06/17 04:31:23;;;;;;;;;9.80;9.40;;;;;25.79;36.46;101652.44;2097702;27;47783;-60
2022/06/17 04:32:33;;;;;;;;;6.60;6.60;;;;;25.78;36.37;101650.69;2096679;28;47599;-59
2022/06/17 04:33:50;;;;;;;;;9.00;9.00;;;;;25.77;36.81;101653.50;2097501;27;47453;-59
2022/06/17 04:34:51;;;;;;;;;10.00;10.00;;;;;25.74;37.00;101651.88;2097768;27;48281;-60
2022/06/17 04:35:58;;;;;;;;;11.25;9.00;;;;;25.73;37.09;101652.84;2096368;28;47861;-60
2022/06/17 04:37:09;;;;;;;;;8.80;8.80;;;;;25.72;36.72;101648.41;2096668;28;48086;-60
2022/06/17 04:38:09;;;;;;;;;10.00;10.00;;;;;25.71;37.14;101641.22;2083755;28;46751;-59
2022/06/17 04:39:43;;;;;;;;;10.00;10.00;;;;;25.70;36.69;101647.66;2086847;28;48339;-60
2022/06/17 04:40:50;;;;;;;;;9.20;9.20;;;;;25.67;36.99;101647.84;2108842;27;48270;-59
2022/06/17 04:41:54;;;;;;;;;10.60;10.60;;;;;25.65;37.00;101649.78;2097139;27;47720;-60
2022/06/17 04:42:57;;;;;;;;;10.20;9.20;;;;;25.65;37.04;101652.47;2104233;27;47346;-60
2022/06/17 04:44:01;;;;;;;;;9.80;9.80;;;;;25.64;37.11;101652.59;2105474;27;47739;-60
2022/06/17 04:45:03;;;;;;;;;11.40;10.60;;;;;25.64;36.73;101658.03;2105092;28;47771;-59
2022/06/17 04:46:13;;;;;;;;;9.60;9.60;;;;;25.62;36.74;101651.84;2101458;27;48004;-60
2022/06/17 04:47:18;;;;;;;;;11.20;11.20;;;;;25.61;37.40;101648.25;2082619;28;48003;-61
2022/06/17 04:48:18;;;;;;;;;10.00;10.00;;;;;25.60;37.15;101660.09;2072382;28;47510;-59
2022/06/17 04:49:22;;;;;;;;;9.00;9.00;;;;;25.60;36.80;101660.09;2091013;28;47442;-59
2022/06/17 04:50:26;;;;;;;;;12.80;10.00;;;;;25.60;37.00;101661.97;2109072;27;47809;-59
2022/06/17 04:51:29;;;;;;;;;9.00;9.00;;;;;25.60;36.75;101670.97;2096882;28;48009;-58
2022/06/17 04:52:36;;;;;;;;;9.80;9.80;;;;;25.60;37.32;101657.38;2102887;27;48262;-58
2022/06/17 04:53:42;;;;;;;;;9.40;9.40;;;;;25.60;37.38;101662.81;2105250;27;47537;-60
2022/06/17 04:54:43;;;;;;;;;11.60;10.60;;;;;25.59;37.09;101663.81;2104592;27;48242;-60
2022/06/17 04:55:45;;;;;;;;;10.00;10.00;;;;;25.59;37.61;101663.81;2109261;27;47654;-60
2022/06/17 04:56:50;;;;;;;;;9.80;9.80;;;;;25.59;37.20;101661.09;2105595;27;48078;-60
2022/06/17 04:57:50;;;;;;;;;9.20;9.20;;;;;25.59;37.01;101663.81;2099152;27;47961;-58
2022/06/17 04:58:51;;;;;;;;;13.50;13.50;;;;;25.59;37.01;101669.25;2108759;27;47381;-60
2022/06/17 04:59:51;;;;;;;;;10.75;10.00;;;;;25.58;37.13;101662.06;2107354;27;47632;-59
2022/06/17 05:00:55;;;;;;;;;10.50;10.50;;;;;25.60;37.46;101670.13;2099676;27;48115;-60
2022/06/17 05:01:56;;;;;;;;;10.60;10.60;;;;;25.60;37.41;101670.13;2097413;27;47769;-60
2022/06/17 05:02:57;;;;;;;;;9.00;9.00;;;;;25.60;37.24;101665.53;2102082;27;47551;-60